createdAt,value
2023-03-26T00:00:20.630Z,100768.38
2023-03-26T00:02:58.196Z,100592.78
2023-03-26T00:05:41.358Z,100740.28
2023-03-26T00:08:20.310Z,100667.00
2023-03-26T00:10:50.430Z,100743.50
2023-03-26T00:13:28.175Z,100731.78
2023-03-26T00:15:58.309Z,100766.88
2023-03-26T00:21:21.989Z,100681.41
2023-03-26T00:23:52.579Z,100541.63
2023-03-26T00:26:19.190Z,100607.13
2023-03-26T00:34:25.037Z,100645.25
2023-03-26T00:37:08.989Z,100698.31
2023-03-26T00:39:41.546Z,100769.56
2023-03-26T00:42:17.206Z,100631.72
2023-03-26T00:47:33.158Z,100727.91
2023-03-26T00:50:04.113Z,100645.78
2023-03-26T00:52:39.235Z,100687.41
2023-03-26T00:55:07.009Z,100752.34
2023-03-26T00:57:42.872Z,100695.09
2023-03-26T01:00:16.116Z,100746.97
2023-03-26T01:02:48.684Z,100761.72
2023-03-26T01:05:55.736Z,100602.75
2023-03-26T01:08:44.378Z,100505.19
2023-03-26T01:11:21.071Z,100737.91
2023-03-26T01:13:59.066Z,100623.59
2023-03-26T01:16:34.618Z,100616.56
2023-03-26T01:19:01.244Z,100543.28
2023-03-26T01:21:32.383Z,100669.22
2023-03-26T01:24:10.248Z,100557.13
2023-03-26T01:27:15.143Z,100747.41
2023-03-26T01:29:44.797Z,100747.91
2023-03-26T01:32:30.201Z,100709.69
2023-03-26T01:35:17.392Z,100734.06
2023-03-26T01:37:53.797Z,100667.47
2023-03-26T01:40:31.990Z,100729.03
2023-03-26T01:43:46.068Z,100715.47
2023-03-26T01:46:17.363Z,100621.91
2023-03-26T01:48:48.950Z,100533.03
2023-03-26T01:51:31.296Z,100557.94
2023-03-26T01:53:58.480Z,100700.03
2023-03-26T01:57:00.351Z,100720.25
2023-03-26T02:00:23.076Z,100722.72
2023-03-26T02:03:18.408Z,100725.47
2023-03-26T02:06:17.980Z,100719.03
2023-03-26T02:09:26.093Z,100724.63
2023-03-26T02:11:54.060Z,100724.91
2023-03-26T02:14:28.214Z,100706.72
2023-03-26T02:16:56.489Z,100707.94
2023-03-26T02:22:18.281Z,100591.78
2023-03-26T02:24:45.630Z,100722.06
2023-03-26T02:27:26.078Z,100694.69
2023-03-26T02:29:59.213Z,100710.28
2023-03-26T02:32:28.650Z,100711.09
2023-03-26T02:35:01.168Z,100712.81
2023-03-26T02:37:33.863Z,100631.84
2023-03-26T02:40:08.968Z,100668.63
2023-03-26T02:42:35.674Z,100688.94
2023-03-26T02:45:09.663Z,100690.31
2023-03-26T02:47:36.235Z,100697.50
2023-03-26T02:50:04.688Z,100684.06
2023-03-26T02:52:32.877Z,100637.13
2023-03-26T02:55:14.972Z,100669.44
2023-03-26T02:57:50.696Z,100708.38
2023-03-26T03:00:17.703Z,100699.72
2023-03-26T03:02:51.822Z,100700.28
2023-03-26T03:05:19.226Z,100682.63
2023-03-26T03:07:46.681Z,100660.38
2023-03-26T03:10:16.509Z,100704.94
2023-03-26T03:12:43.094Z,100667.53
2023-03-26T03:15:16.401Z,100659.94
2023-03-26T03:17:54.504Z,100668.97
2023-03-26T03:20:22.369Z,100686.59
2023-03-26T03:22:49.196Z,100715.72
2023-03-26T03:25:27.783Z,100684.69
2023-03-26T03:28:02.349Z,100676.56
2023-03-26T03:30:35.971Z,100684.81
2023-03-26T03:33:03.984Z,100685.81
2023-03-26T03:35:35.238Z,100714.56
2023-03-26T03:38:02.382Z,100661.66
2023-03-26T03:40:37.198Z,100647.13
2023-03-26T03:43:21.856Z,100707.06
2023-03-26T03:45:58.237Z,100678.69
2023-03-26T03:48:38.786Z,100705.97
2023-03-26T03:51:11.316Z,100699.13
2023-03-26T03:53:40.793Z,100667.59
2023-03-26T03:56:12.842Z,100708.69
2023-03-26T03:58:48.451Z,100651.22
2023-03-26T04:01:20.032Z,100667.81
2023-03-26T04:03:47.374Z,100676.63
2023-03-26T04:06:14.238Z,100678.16
2023-03-26T04:08:41.125Z,100634.03
2023-03-26T04:11:08.077Z,100591.69
2023-03-26T04:13:50.303Z,100560.97
2023-03-26T04:16:25.358Z,100714.91
2023-03-26T04:18:56.311Z,100674.63
2023-03-26T04:21:24.138Z,100593.78
2023-03-26T04:23:50.825Z,100685.00
2023-03-26T04:26:20.747Z,100709.75
2023-03-26T04:28:59.860Z,100631.56
2023-03-26T04:31:31.747Z,100699.59
2023-03-26T04:34:10.987Z,100709.28
2023-03-26T04:36:40.889Z,100696.75
2023-03-26T04:39:13.358Z,100668.84
2023-03-26T04:41:51.914Z,100693.44
2023-03-26T04:44:22.497Z,100695.59
2023-03-26T04:46:52.936Z,100697.22
2023-03-26T04:49:19.817Z,100652.00
2023-03-26T04:52:01.917Z,100678.50
2023-03-26T04:54:34.916Z,100703.44
2023-03-26T04:57:10.275Z,100702.34
2023-03-26T04:59:48.311Z,100638.13
2023-03-26T05:02:18.307Z,100651.97
2023-03-26T05:05:04.254Z,100685.19
2023-03-26T05:07:33.985Z,100667.63
2023-03-26T05:10:06.573Z,100612.53
2023-03-26T05:12:41.903Z,100665.38
2023-03-26T05:18:01.309Z,100637.88
2023-03-26T05:20:35.698Z,100679.34
2023-03-26T05:23:02.880Z,100661.97
2023-03-26T05:25:39.705Z,100663.63
2023-03-26T05:28:06.922Z,100661.53
2023-03-26T05:30:52.259Z,100628.09
2023-03-26T05:33:32.246Z,100444.28
2023-03-26T05:36:07.725Z,100663.50
2023-03-26T05:38:34.475Z,100652.97
2023-03-26T05:41:06.995Z,100628.94
2023-03-26T05:43:36.899Z,100466.50
2023-03-26T05:46:07.751Z,100624.41
2023-03-26T05:48:34.678Z,100608.56
2023-03-26T05:51:01.660Z,100636.91
2023-03-26T05:53:28.417Z,100644.72
2023-03-26T05:55:58.021Z,100646.56
2023-03-26T05:58:26.291Z,100637.88
2023-03-26T06:01:09.507Z,100654.63
2023-03-26T06:03:43.147Z,100656.56
2023-03-26T06:06:20.634Z,100649.69
2023-03-26T06:09:00.951Z,100628.25
2023-03-26T06:11:35.668Z,100638.63
2023-03-26T06:14:02.427Z,100648.31
2023-03-26T06:16:29.570Z,100579.69
2023-03-26T06:18:59.222Z,100639.72
2023-03-26T06:21:28.805Z,100637.00
2023-03-26T06:23:58.408Z,100648.06
2023-03-26T06:26:27.821Z,100627.88
2023-03-26T06:29:00.369Z,100543.75
2023-03-26T06:31:29.780Z,100556.00
2023-03-26T06:33:56.517Z,100554.78
2023-03-26T06:36:23.299Z,100547.63
2023-03-26T06:38:52.859Z,100497.94
2023-03-26T06:41:19.356Z,100556.47
2023-03-26T06:43:48.793Z,100572.28
2023-03-26T06:46:19.071Z,100574.84
2023-03-26T06:48:48.140Z,100596.66
2023-03-26T06:51:21.044Z,100572.91
2023-03-26T06:53:47.601Z,100603.44
2023-03-26T06:56:14.275Z,100599.75
2023-03-26T06:58:41.347Z,100608.81
2023-03-26T07:01:17.507Z,100590.59
2023-03-26T07:04:16.251Z,100549.38
2023-03-26T07:06:46.559Z,100585.56
2023-03-26T07:09:13.253Z,100543.28
2023-03-26T07:11:48.588Z,100561.84
2023-03-26T07:14:22.184Z,100577.06
2023-03-26T07:16:49.148Z,100491.84
2023-03-26T07:22:01.002Z,100376.91
2023-03-26T07:24:31.118Z,100586.41
2023-03-26T07:27:29.309Z,100524.25
2023-03-26T07:30:03.905Z,100590.94
2023-03-26T07:32:51.901Z,100595.59
2023-03-26T07:35:44.151Z,100584.72
2023-03-26T07:38:22.471Z,100565.03
2023-03-26T07:41:06.699Z,100583.41
2023-03-26T07:43:54.553Z,100590.41
2023-03-26T07:46:31.852Z,100543.97
2023-03-26T07:49:01.903Z,100584.56
2023-03-26T07:51:30.958Z,100532.06
2023-03-26T07:54:00.546Z,100583.22
2023-03-26T07:56:42.021Z,100582.03
2023-03-26T07:59:41.050Z,100442.25
2023-03-26T08:02:22.988Z,100532.44
2023-03-26T08:05:10.497Z,100588.41
2023-03-26T08:08:20.747Z,100582.06
2023-03-26T08:11:43.410Z,100582.41
2023-03-26T08:14:32.654Z,100574.72
2023-03-26T08:17:22.880Z,100512.72
2023-03-26T08:20:12.112Z,100561.81
2023-03-26T08:22:41.950Z,100558.47
2023-03-26T08:25:12.069Z,100558.81
2023-03-26T08:27:58.956Z,100490.66
2023-03-26T08:30:41.680Z,100534.56
2023-03-26T08:33:38.241Z,100314.84
2023-03-26T08:36:51.912Z,100350.41
2023-03-26T08:39:25.177Z,100531.19
2023-03-26T08:42:10.216Z,100512.56
2023-03-26T08:44:49.560Z,100320.47
2023-03-26T08:47:53.861Z,100440.59
2023-03-26T08:50:30.382Z,100523.41
2023-03-26T08:53:32.823Z,100519.41
2023-03-26T08:56:22.946Z,100528.09
2023-03-26T08:59:46.503Z,100468.66
2023-03-26T09:02:58.471Z,100504.81
2023-03-26T09:06:03.248Z,100509.31
2023-03-26T09:08:54.250Z,100509.78
2023-03-26T09:12:07.354Z,100492.19
2023-03-26T09:15:06.530Z,100485.31
2023-03-26T09:17:56.618Z,100341.94
2023-03-26T09:21:05.093Z,100487.03
2023-03-26T09:23:57.854Z,100476.88
2023-03-26T09:26:59.921Z,100475.41
2023-03-26T09:29:50.011Z,100457.44
2023-03-26T09:32:35.892Z,100464.09
2023-03-26T09:35:53.535Z,100464.56
2023-03-26T09:38:55.676Z,100466.22
2023-03-26T09:42:05.888Z,100463.59
2023-03-26T09:45:23.972Z,100457.22
2023-03-26T09:48:19.184Z,100459.03
2023-03-26T09:51:33.276Z,100442.47
2023-03-26T09:54:54.526Z,100436.00
2023-03-26T09:57:58.547Z,100352.94
2023-03-26T10:00:46.468Z,100413.84
2023-03-26T10:03:32.162Z,100418.25
2023-03-26T10:06:35.661Z,100413.88
2023-03-26T10:09:30.823Z,100404.44
2023-03-26T10:12:20.049Z,100412.44
2023-03-26T10:15:06.997Z,100404.00
2023-03-26T10:17:49.900Z,100340.16
2023-03-26T10:20:44.772Z,100399.56
2023-03-26T10:23:24.733Z,100342.72
2023-03-26T10:26:30.061Z,100395.53
2023-03-26T10:29:30.652Z,100391.97
2023-03-26T10:32:18.841Z,100333.69
2023-03-26T10:35:23.150Z,100368.75
2023-03-26T10:38:09.043Z,100375.53
2023-03-26T10:41:11.650Z,100371.59
2023-03-26T10:44:07.810Z,100365.53
2023-03-26T10:47:15.463Z,100344.72
2023-03-26T10:50:23.093Z,100342.66
2023-03-26T10:53:57.652Z,100331.28
2023-03-26T10:56:43.722Z,100336.66
2023-03-26T10:59:14.680Z,100342.47
2023-03-26T11:01:54.852Z,100338.72
2023-03-26T11:04:52.982Z,100327.47
2023-03-26T11:10:57.170Z,100328.19
2023-03-26T11:13:30.215Z,100310.97
2023-03-26T11:16:20.136Z,100294.81
2023-03-26T11:19:05.627Z,100273.59
2023-03-26T11:22:18.058Z,100236.72
2023-03-26T11:25:22.431Z,100278.53
2023-03-26T11:28:22.855Z,100258.88
2023-03-26T11:31:23.307Z,100266.25
2023-03-26T11:34:06.220Z,100052.66
2023-03-26T11:36:43.896Z,100272.41
2023-03-26T11:39:40.504Z,100260.50
2023-03-26T11:42:21.324Z,100155.00
2023-03-26T11:45:08.335Z,100132.34
2023-03-26T11:47:48.337Z,100179.50
2023-03-26T11:50:28.394Z,100105.97
2023-03-26T11:53:06.298Z,100239.84
2023-03-26T11:55:44.328Z,100193.63
2023-03-26T11:58:54.690Z,100233.47
2023-03-26T12:01:50.675Z,100026.03
2023-03-26T12:04:40.854Z,100209.78
2023-03-26T12:07:37.798Z,100222.91
2023-03-26T12:10:20.823Z,100169.63
2023-03-26T12:12:54.121Z,100088.63
2023-03-26T12:15:23.823Z,100139.25
2023-03-26T12:18:00.828Z,100025.94
2023-03-26T12:20:39.358Z,100220.25
2023-03-26T12:23:10.752Z,100219.63
2023-03-26T12:25:39.267Z,100225.44
2023-03-26T12:28:19.185Z,100224.94
2023-03-26T12:31:04.237Z,100234.22
2023-03-26T12:33:45.176Z,100220.28
2023-03-26T12:36:23.791Z,100239.66
2023-03-26T12:39:17.065Z,100221.59
2023-03-26T12:44:43.007Z,100208.22
2023-03-26T12:44:59.019Z,100162.84
2023-03-26T12:47:59.261Z,100169.44
2023-03-26T12:50:36.527Z,100099.50
2023-03-26T12:53:19.308Z,100147.81
2023-03-26T12:56:00.588Z,100159.38
2023-03-26T12:59:04.428Z,100107.66
2023-03-26T13:02:05.430Z,100176.59
2023-03-26T13:04:55.052Z,100121.13
2023-03-26T13:07:47.764Z,100104.75
2023-03-26T13:10:36.567Z,100166.19
2023-03-26T13:13:46.966Z,100156.88
2023-03-26T13:16:56.919Z,100151.63
2023-03-26T13:19:35.785Z,100081.31
2023-03-26T13:22:17.957Z,100135.47
2023-03-26T13:25:20.019Z,100135.06
2023-03-26T13:27:59.039Z,100114.47
2023-03-26T13:30:43.624Z,100124.13
2023-03-26T13:33:16.529Z,100108.69
2023-03-26T13:36:23.740Z,100095.97
2023-03-26T13:39:17.914Z,100106.44
2023-03-26T13:41:47.807Z,100099.84
2023-03-26T13:44:20.708Z,100081.81
2023-03-26T13:47:03.073Z,100056.19
2023-03-26T13:49:48.947Z,100044.09
2023-03-26T13:52:47.826Z,100039.16
2023-03-26T13:55:23.374Z,100083.47
2023-03-26T13:58:39.449Z,99944.34
2023-03-26T14:01:19.562Z,99916.88
2023-03-26T14:04:18.101Z,100023.91
2023-03-26T14:07:07.406Z,99953.50
2023-03-26T14:09:57.010Z,99858.34
2023-03-26T14:12:52.602Z,100052.03
2023-03-26T14:15:31.064Z,100039.16
2023-03-26T14:18:37.378Z,100032.94
2023-03-26T14:21:38.310Z,99868.75
2023-03-26T14:24:44.568Z,100027.31
2023-03-26T14:27:59.128Z,99862.59
2023-03-26T14:30:49.308Z,99963.75
2023-03-26T14:34:02.234Z,100016.03
2023-03-26T14:37:02.389Z,100000.25
2023-03-26T14:40:20.860Z,99996.31
2023-03-26T14:43:14.349Z,100016.16
2023-03-26T14:46:28.800Z,100001.16
2023-03-26T14:56:04.306Z,99774.91
2023-03-26T14:58:58.113Z,99923.75
2023-03-26T15:02:05.176Z,99961.47
2023-03-26T15:05:09.983Z,99937.53
2023-03-26T15:08:04.522Z,99957.34
2023-03-26T15:11:11.829Z,99956.41
2023-03-26T15:14:19.088Z,99938.28
2023-03-26T15:17:23.822Z,99944.91
2023-03-26T15:20:13.199Z,99927.19
2023-03-26T15:23:17.074Z,99887.22
2023-03-26T15:26:31.725Z,99921.06
2023-03-26T15:29:20.306Z,99927.59
2023-03-26T15:32:28.001Z,99907.25
2023-03-26T15:35:00.700Z,99901.13
2023-03-26T15:37:59.036Z,99884.00
2023-03-26T15:40:36.546Z,99813.75
2023-03-26T15:43:08.003Z,99857.22
2023-03-26T15:48:42.448Z,99842.38
2023-03-26T15:51:26.166Z,99771.19
2023-03-26T15:54:03.670Z,99785.91
2023-03-26T15:57:09.083Z,99822.28
2023-03-26T15:59:42.107Z,99829.47
2023-03-26T16:02:26.751Z,99814.25
2023-03-26T16:05:03.561Z,99799.28
2023-03-26T16:08:07.392Z,99813.47
2023-03-26T16:10:56.192Z,99811.38
2023-03-26T16:13:26.415Z,99814.03
2023-03-26T16:16:15.330Z,99811.19
2023-03-26T16:18:44.144Z,99818.84
2023-03-26T16:21:31.164Z,99816.97
2023-03-26T16:24:12.162Z,99755.13
2023-03-26T16:26:45.684Z,99805.97
2023-03-26T16:29:36.437Z,99801.53
2023-03-26T16:32:34.319Z,99758.56
2023-03-26T16:35:43.945Z,99743.72
2023-03-26T16:38:16.192Z,99679.13
2023-03-26T16:44:16.096Z,99765.56
2023-03-26T16:47:06.490Z,99781.69
2023-03-26T16:50:12.171Z,99792.03
2023-03-26T16:52:56.745Z,99790.41
2023-03-26T16:55:42.486Z,99739.69
2023-03-26T16:58:41.120Z,99791.69
2023-03-26T17:03:54.716Z,99671.16
2023-03-26T17:06:53.407Z,99809.09
2023-03-26T17:09:40.092Z,99725.69
2023-03-26T17:12:34.522Z,99814.75
2023-03-26T17:15:27.591Z,99819.13
2023-03-26T17:18:16.148Z,99800.16
2023-03-26T17:21:14.112Z,99869.00
2023-03-26T17:24:15.331Z,99834.88
2023-03-26T17:27:03.242Z,99866.69
2023-03-26T17:29:58.306Z,99881.94
2023-03-26T17:32:45.613Z,99881.34
2023-03-26T17:35:15.765Z,99865.84
2023-03-26T17:37:56.615Z,99896.38
2023-03-26T17:40:46.408Z,99827.09
2023-03-26T17:43:42.401Z,99931.69
2023-03-26T17:46:40.095Z,99926.72
2023-03-26T17:49:13.006Z,99957.69
2023-03-26T17:52:06.317Z,99943.56
2023-03-26T17:54:36.204Z,99941.38
2023-03-26T17:57:17.381Z,99844.38
2023-03-26T17:59:46.332Z,99850.00
2023-03-26T18:02:21.172Z,99803.16
2023-03-26T18:04:58.401Z,99919.28
2023-03-26T18:08:02.415Z,99832.06
2023-03-26T18:10:46.436Z,99953.66
2023-03-26T18:13:22.240Z,100070.44
2023-03-26T18:16:12.337Z,100083.25
2023-03-26T18:18:50.551Z,99869.91
2023-03-26T18:21:30.365Z,99951.81
2023-03-26T18:23:59.785Z,99889.91
2023-03-26T18:26:46.192Z,99799.25
2023-03-26T18:29:22.185Z,99949.13
2023-03-26T18:31:54.506Z,99874.59
2023-03-26T18:34:22.091Z,99882.25
2023-03-26T18:37:20.491Z,100037.75
2023-03-26T18:40:20.122Z,100032.44
2023-03-26T18:42:56.839Z,99828.03
2023-03-26T18:45:35.919Z,99920.19
2023-03-26T18:48:20.645Z,99893.22
2023-03-26T18:51:04.951Z,99920.81
2023-03-26T18:54:00.371Z,99947.94
2023-03-26T18:56:31.035Z,99931.63
2023-03-26T18:59:00.656Z,99923.13
2023-03-26T19:01:33.309Z,99854.41
2023-03-26T19:04:04.561Z,99883.50
2023-03-26T19:06:38.919Z,99789.00
2023-03-26T19:12:08.085Z,99805.03
2023-03-26T19:14:51.549Z,99928.16
2023-03-26T19:17:20.146Z,99753.41
2023-03-26T19:22:31.627Z,99745.19
2023-03-26T19:25:01.534Z,99818.50
2023-03-26T19:27:36.002Z,99725.72
2023-03-26T19:30:03.346Z,99706.72
2023-03-26T19:32:33.149Z,99746.53
2023-03-26T19:35:04.904Z,99691.75
2023-03-26T19:37:51.472Z,99691.19
2023-03-26T19:40:30.478Z,99726.38
2023-03-26T19:43:09.150Z,99697.16
2023-03-26T19:45:36.140Z,99702.25
2023-03-26T19:48:46.013Z,99638.31
2023-03-26T19:51:24.176Z,99584.19
2023-03-26T19:54:00.677Z,99834.00
2023-03-26T19:56:28.968Z,99708.88
2023-03-26T19:58:59.325Z,99715.97
2023-03-26T20:01:29.794Z,99572.19
2023-03-26T20:04:10.812Z,99722.59
2023-03-26T20:06:44.223Z,99667.50
2023-03-26T20:09:20.556Z,99713.00
2023-03-26T20:12:06.505Z,99630.53
2023-03-26T20:14:39.003Z,99681.75
2023-03-26T20:17:21.905Z,99563.94
2023-03-26T20:19:48.815Z,99653.63
2023-03-26T20:22:36.133Z,99616.28
2023-03-26T20:27:43.236Z,99569.66
2023-03-26T20:30:14.027Z,99759.31
2023-03-26T20:32:51.044Z,99652.00
2023-03-26T20:35:52.438Z,99680.50
2023-03-26T20:38:26.491Z,99637.66
2023-03-26T20:41:13.754Z,99839.75
2023-03-26T20:43:41.237Z,99772.03
2023-03-26T20:46:17.782Z,99826.19
2023-03-26T20:48:45.831Z,99843.81
2023-03-26T20:51:24.773Z,99802.56
2023-03-26T20:53:51.431Z,99826.19
2023-03-26T20:56:19.787Z,99824.88
2023-03-26T20:58:54.751Z,99776.19
2023-03-26T21:01:29.463Z,99757.94
2023-03-26T21:04:00.238Z,99810.25
2023-03-26T21:06:29.748Z,99835.53
2023-03-26T21:08:56.777Z,99833.19
2023-03-26T21:11:29.834Z,99797.88
2023-03-26T21:14:02.034Z,99816.84
2023-03-26T21:16:32.415Z,99750.53
2023-03-26T21:18:59.614Z,99808.84
2023-03-26T21:21:51.243Z,99803.38
2023-03-26T21:24:27.924Z,99803.56
2023-03-26T21:27:06.710Z,99695.09
2023-03-26T21:29:49.816Z,99781.09
2023-03-26T21:32:19.382Z,99643.13
2023-03-26T21:34:59.216Z,99651.09
2023-03-26T21:37:28.164Z,99649.44
2023-03-26T21:39:56.747Z,99723.19
2023-03-26T21:42:37.938Z,99788.44
2023-03-26T21:45:07.004Z,99765.72
2023-03-26T21:47:37.187Z,99663.88
2023-03-26T21:50:17.786Z,99767.69
2023-03-26T21:52:51.180Z,99779.66
2023-03-26T21:55:27.015Z,99796.47
2023-03-26T21:58:47.868Z,99749.31
2023-03-26T22:01:44.641Z,99806.50
2023-03-26T22:04:43.594Z,99803.31
2023-03-26T22:07:53.796Z,99803.69
2023-03-26T22:10:21.304Z,99788.03
2023-03-26T22:12:48.294Z,99822.59
2023-03-26T22:15:23.782Z,99789.00
2023-03-26T22:18:02.027Z,99800.78
2023-03-26T22:20:29.407Z,99806.47
2023-03-26T22:22:56.244Z,99734.22
2023-03-26T22:25:31.297Z,99789.03
2023-03-26T22:28:00.743Z,99804.69
2023-03-26T22:30:27.541Z,99775.56
2023-03-26T22:32:54.539Z,99784.91
2023-03-26T22:35:23.519Z,99714.63
2023-03-26T22:38:00.777Z,99805.34
2023-03-26T22:40:29.970Z,99746.19
2023-03-26T22:42:57.003Z,99829.47
2023-03-26T22:45:32.535Z,99751.16
2023-03-26T22:48:03.012Z,99766.47
2023-03-26T22:50:33.709Z,99818.34
2023-03-26T22:53:00.623Z,99820.34
2023-03-26T22:55:28.791Z,99817.84
2023-03-26T22:58:00.929Z,99800.69
2023-03-26T23:00:28.236Z,99801.34
2023-03-26T23:03:00.931Z,99761.94
2023-03-26T23:05:27.817Z,99800.03
2023-03-26T23:07:54.616Z,99771.94
2023-03-26T23:10:22.356Z,99754.16
2023-03-26T23:12:55.388Z,99801.03
2023-03-26T23:15:22.268Z,99790.25
2023-03-26T23:17:57.777Z,99800.38
2023-03-26T23:20:24.436Z,99805.38
2023-03-26T23:22:51.429Z,99809.38
2023-03-26T23:25:18.284Z,99764.97
2023-03-26T23:27:44.954Z,99664.41
2023-03-26T23:30:20.905Z,99809.38
2023-03-26T23:32:48.078Z,99668.56
2023-03-26T23:35:15.051Z,99779.59
2023-03-26T23:37:59.963Z,99751.19
2023-03-26T23:40:32.357Z,99613.56
2023-03-26T23:43:05.504Z,99801.03
2023-03-26T23:45:33.460Z,99796.56
2023-03-26T23:48:04.562Z,99658.09
2023-03-26T23:50:45.990Z,99600.94
2023-03-26T23:53:16.003Z,99651.28
2023-03-26T23:55:47.611Z,99796.56
2023-03-26T23:58:20.223Z,99795.75
